Time;durP1;ratioP1;P1;durP2;ratioP2;P2;SDS_P1;SDS_P2;PMS_P1;PMS_P2;Temp;Humidity;BMP_temperature;BMP_pressure;BME280_temperature;BME280_humidity;BME280_pressure;Samples;Min_cycle;Max_cycle;Signal;HPM_P1;HPM_P2
2022/07/25 00:01:59;;;;;;;23.20;12.90;;;;;;;20.08;62.82;99030.75;5071339;28;20309;-55
2022/07/25 00:04:24;;;;;;;24.77;12.07;;;;;;;20.10;62.73;99033.97;5070754;28;20033;-56
2022/07/25 00:06:50;;;;;;;24.88;13.52;;;;;;;20.32;62.03;99031.22;5072850;28;20029;-56
2022/07/25 00:09:15;;;;;;;20.48;12.32;;;;;;;20.40;61.84;99033.19;5073107;28;20090;-55
2022/07/25 00:11:41;;;;;;;30.55;13.25;;;;;;;20.48;61.15;99024.25;5072729;28;20021;-55
2022/07/25 00:14:06;;;;;;;22.17;11.88;;;;;;;20.39;61.82;99023.44;5072492;28;20037;-56
2022/07/25 00:16:31;;;;;;;18.02;11.75;;;;;;;20.15;63.00;99021.03;5072315;28;20520;-56
2022/07/25 00:18:57;;;;;;;22.02;12.32;;;;;;;20.06;63.35;99017.44;5071989;28;20023;-55
2022/07/25 00:21:22;;;;;;;24.90;12.60;;;;;;;19.99;63.95;99017.91;5071190;28;20024;-56
2022/07/25 00:23:48;;;;;;;25.65;13.13;;;;;;;20.10;63.11;99017.66;5072058;28;21502;-56
2022/07/25 00:26:13;;;;;;;21.63;12.98;;;;;;;20.16;63.00;99013.69;5072224;28;20086;-56
2022/07/25 00:28:39;;;;;;;20.25;12.45;;;;;;;19.87;63.72;99016.84;5072471;28;20029;-55
2022/07/25 00:31:04;;;;;;;21.17;12.77;;;;;;;20.04;62.93;99014.22;5072247;28;20032;-54
2022/07/25 00:33:30;;;;;;;19.38;12.30;;;;;;;20.22;62.26;99017.88;5071392;28;20031;-55
2022/07/25 00:35:55;;;;;;;23.42;12.38;;;;;;;20.09;63.26;99016.81;5076975;28;20070;-56
2022/07/25 00:38:20;;;;;;;19.20;12.80;;;;;;;19.97;63.66;99008.44;5072199;28;20033;-56
2022/07/25 00:40:46;;;;;;;21.98;12.73;;;;;;;19.75;64.11;99011.97;5070594;28;20421;-55
2022/07/25 00:43:11;;;;;;;28.75;14.77;;;;;;;19.58;64.90;99010.69;5078188;28;20036;-55
2022/07/25 00:45:37;;;;;;;24.75;12.63;;;;;;;19.44;65.54;99009.91;5072273;28;20532;-56
2022/07/25 00:48:02;;;;;;;21.52;11.57;;;;;;;19.50;65.35;99016.84;5071455;28;20016;-55
2022/07/25 00:50:28;;;;;;;22.23;13.00;;;;;;;19.57;64.68;99006.38;5072235;28;20402;-54
2022/07/25 00:52:53;;;;;;;20.95;12.60;;;;;;;19.61;63.68;99007.34;5070692;28;20379;-55
2022/07/25 00:55:18;;;;;;;19.63;11.68;;;;;;;19.73;63.06;98998.66;5071786;28;20086;-54
2022/07/25 00:57:44;;;;;;;21.75;12.65;;;;;;;20.00;62.45;99000.47;5070767;28;20101;-56
2022/07/25 01:00:11;;;;;;;25.33;12.65;;;;;;;19.88;62.60;98994.78;5075729;28;20021;-55
2022/07/25 01:02:37;;;;;;;24.50;12.32;;;;;;;19.75;63.49;99001.09;5070937;28;20041;-56
2022/07/25 01:05:03;;;;;;;20.73;12.77;;;;;;;19.69;63.74;98999.59;5071918;28;20017;-55
2022/07/25 01:07:28;;;;;;;20.23;12.65;;;;;;;19.63;64.38;98998.09;5071824;28;20027;-55
2022/07/25 01:09:54;;;;;;;22.58;12.23;;;;;;;19.61;63.52;98988.31;5071734;28;20375;-56
2022/07/25 01:12:20;;;;;;;25.95;12.40;;;;;;;19.63;64.39;98998.09;5074085;28;20463;-56
2022/07/25 01:14:45;;;;;;;21.48;12.63;;;;;;;19.50;64.88;98984.22;5071667;28;20058;-55
2022/07/25 01:17:12;;;;;;;20.30;13.57;;;;;;;19.36;66.42;98978.81;5071693;28;20032;-56
2022/07/25 01:19:37;;;;;;;24.77;12.93;;;;;;;19.29;66.24;98966.78;5074005;28;20585;-56
2022/07/25 01:22:03;;;;;;;24.25;13.15;;;;;;;19.23;66.83;98963.38;5071554;28;20063;-55
2022/07/25 01:24:28;;;;;;;23.92;13.50;;;;;;;19.24;66.50;98964.97;5071906;28;20025;-56
2022/07/25 01:26:53;;;;;;;24.17;12.90;;;;;;;19.12;67.33;98962.81;5071596;28;20344;-56
2022/07/25 01:29:19;;;;;;;19.50;13.05;;;;;;;19.06;67.40;98964.00;5071639;28;20033;-56
2022/07/25 01:31:44;;;;;;;25.48;13.90;;;;;;;18.80;68.05;98973.81;5071432;28;20099;-55
2022/07/25 01:34:10;;;;;;;27.48;13.57;;;;;;;18.74;68.94;98983.94;5071195;28;20040;-55
2022/07/25 01:36:35;;;;;;;25.80;13.55;;;;;;;18.79;68.50;98977.63;5071697;28;20037;-56
2022/07/25 01:39:00;;;;;;;23.05;13.85;;;;;;;18.74;68.69;98978.50;5071942;28;20466;-56
2022/07/25 01:41:26;;;;;;;22.83;13.30;;;;;;;18.80;68.10;98984.69;5070331;28;20032;-56
2022/07/25 01:43:51;;;;;;;24.25;13.05;;;;;;;18.77;68.20;98982.53;5071495;28;20041;-56
2022/07/25 01:46:17;;;;;;;20.77;13.18;;;;;;;18.78;67.71;98984.19;5074080;28;20043;-55
2022/07/25 01:48:42;;;;;;;21.40;13.48;;;;;;;18.63;69.24;98983.34;5075072;28;20016;-55
2022/07/25 01:51:09;;;;;;;25.42;13.52;;;;;;;18.59;68.22;98976.09;5057324;28;20402;-55
2022/07/25 01:53:35;;;;;;;22.05;13.25;;;;;;;18.58;68.00;98969.06;5075310;28;20032;-56
2022/07/25 01:56:00;;;;;;;25.08;13.45;;;;;;;18.58;67.64;98967.16;5075411;28;20028;-56
2022/07/25 01:58:25;;;;;;;25.25;12.70;;;;;;;18.57;67.87;98970.16;5075339;28;20024;-56
2022/07/25 02:00:51;;;;;;;21.17;12.38;;;;;;;18.75;66.46;98970.09;5075284;28;20426;-56
2022/07/25 02:03:31;;;;;;;23.23;13.52;;;;;;;18.85;66.84;98960.94;5074503;28;20044;-55
2022/07/25 02:06:04;;;;;;;30.95;14.10;;;;;;;18.80;66.88;98962.97;5075174;28;20020;-55
2022/07/25 02:08:30;;;;;;;24.38;13.05;;;;;;;18.86;66.22;98959.03;5074806;28;20451;-55
2022/07/25 02:10:55;;;;;;;23.80;13.02;;;;;;;18.72;66.69;98959.00;5073722;28;20033;-55
2022/07/25 02:13:21;;;;;;;23.10;12.63;;;;;;;18.69;67.01;98946.03;5073783;28;20024;-54
2022/07/25 02:15:46;;;;;;;23.75;13.50;;;;;;;18.65;67.17;98953.19;5074894;28;20031;-56
2022/07/25 02:18:12;;;;;;;23.35;12.98;;;;;;;18.69;67.29;98949.53;5074163;28;20111;-56
2022/07/25 02:20:37;;;;;;;24.13;12.80;;;;;;;18.64;67.38;98946.94;5074716;28;20016;-56
2022/07/25 02:23:03;;;;;;;20.15;12.18;;;;;;;18.70;67.46;98945.72;5074891;28;20033;-56
2022/07/25 02:25:29;;;;;;;23.17;12.38;;;;;;;18.63;69.16;98939.91;5074575;28;20030;-56
2022/07/25 02:27:54;;;;;;;26.05;12.55;;;;;;;18.81;67.43;98930.06;5074679;28;20103;-56
2022/07/25 02:30:19;;;;;;;21.65;12.73;;;;;;;18.75;67.27;98926.66;5074860;28;20024;-57
2022/07/25 02:32:45;;;;;;;19.02;12.32;;;;;;;18.63;68.08;98933.69;5075632;28;20386;-56
2022/07/25 02:35:10;;;;;;;24.60;13.13;;;;;;;18.39;69.36;98934.66;5073146;28;20510;-56
2022/07/25 02:37:36;;;;;;;21.25;13.55;;;;;;;18.11;70.33;98931.94;5074950;28;20044;-57
2022/07/25 02:40:01;;;;;;;21.55;12.57;;;;;;;18.28;70.63;98928.66;5076844;28;20035;-56
2022/07/25 02:42:26;;;;;;;26.27;13.63;;;;;;;18.47;68.87;98925.03;5074188;28;20031;-55
2022/07/25 02:44:52;;;;;;;19.98;12.88;;;;;;;18.43;68.80;98929.47;5073102;28;20031;-56
2022/07/25 02:47:17;;;;;;;24.58;13.75;;;;;;;18.20;70.10;98923.94;5074808;28;20039;-56
2022/07/25 02:49:43;;;;;;;21.88;13.80;;;;;;;17.97;71.27;98916.75;5076516;28;20028;-57
2022/07/25 02:52:08;;;;;;;21.98;13.02;;;;;;;18.05;70.98;98919.59;5087023;28;20441;-56
2022/07/25 02:54:33;;;;;;;23.25;13.35;;;;;;;18.14;69.79;98916.97;5074202;28;20390;-56
2022/07/25 02:56:59;;;;;;;22.67;12.45;;;;;;;18.28;69.44;98915.09;5073762;28;20032;-57
2022/07/25 02:59:24;;;;;;;22.85;12.60;;;;;;;18.28;69.38;98908.84;5074186;28;20024;-56
2022/07/25 03:01:50;;;;;;;21.75;12.77;;;;;;;18.36;68.77;98901.94;5073774;28;20383;-56
2022/07/25 03:04:15;;;;;;;22.52;12.98;;;;;;;18.30;68.38;98903.94;5077103;28;20525;-56
2022/07/25 03:06:40;;;;;;;24.98;12.88;;;;;;;18.29;68.32;98907.75;5073878;28;20029;-56
2022/07/25 03:09:06;;;;;;;21.77;12.23;;;;;;;18.16;68.99;98901.22;5072639;28;20025;-56
2022/07/25 03:11:33;;;;;;;29.52;13.60;;;;;;;18.29;68.38;98899.59;5072482;28;20035;-57
2022/07/25 03:13:58;;;;;;;21.38;13.07;;;;;;;17.87;69.83;98896.03;5073552;28;20028;-57
2022/07/25 03:16:24;;;;;;;28.63;13.20;;;;;;;18.05;69.87;98891.66;5073782;28;20031;-56
2022/07/25 03:18:49;;;;;;;23.60;13.23;;;;;;;17.96;70.22;98898.88;5072841;28;20386;-57
2022/07/25 03:21:15;;;;;;;23.40;14.23;;;;;;;17.84;71.15;98902.06;5073403;28;20032;-57
2022/07/25 03:23:40;;;;;;;27.95;13.02;;;;;;;17.73;71.54;98897.91;5073413;28;20070;-57
2022/07/25 03:26:05;;;;;;;26.45;13.95;;;;;;;17.49;72.82;98898.03;5073978;28;20035;-56
2022/07/25 03:28:31;;;;;;;23.48;13.85;;;;;;;17.57;72.54;98897.34;5076286;28;20047;-55
2022/07/25 03:30:56;;;;;;;25.42;15.13;;;;;;;17.33;73.29;98892.84;5073266;28;20134;-56
2022/07/25 03:33:22;;;;;;;28.45;14.15;;;;;;;17.46;73.44;98896.72;5072774;28;20082;-57
2022/07/25 03:35:47;;;;;;;24.77;14.23;;;;;;;17.23;74.55;98887.59;5073052;28;20422;-56
2022/07/25 03:38:13;;;;;;;27.38;14.65;;;;;;;17.41;73.32;98889.47;5073015;28;20036;-55
2022/07/25 03:40:38;;;;;;;23.23;14.35;;;;;;;17.44;73.53;98894.28;5073097;28;20028;-56
2022/07/25 03:43:04;;;;;;;28.35;14.63;;;;;;;17.51;73.82;98876.88;5072896;28;20032;-56
2022/07/25 03:45:29;;;;;;;23.92;14.40;;;;;;;17.41;73.84;98884.06;5072713;28;20025;-55
2022/07/25 03:47:54;;;;;;;26.88;15.02;;;;;;;17.45;73.43;98879.66;5072283;28;20024;-57
2022/07/25 03:50:20;;;;;;;25.75;13.68;;;;;;;17.42;74.15;98879.44;5071420;28;20463;-57
2022/07/25 03:52:45;;;;;;;26.25;14.85;;;;;;;17.33;74.03;98882.03;5076442;28;20234;-57
2022/07/25 03:55:11;;;;;;;24.40;13.75;;;;;;;17.37;74.14;98883.06;5072849;28;20020;-57
2022/07/25 03:57:37;;;;;;;24.23;14.23;;;;;;;17.45;74.32;98885.09;5072329;28;20024;-57
2022/07/25 04:00:04;;;;;;;23.17;13.82;;;;;;;17.54;73.75;98870.84;5072618;28;20028;-56
2022/07/25 04:02:29;;;;;;;29.52;14.70;;;;;;;18.31;70.71;98870.28;5072379;28;20070;-57
2022/07/25 04:04:55;;;;;;;26.38;13.55;;;;;;;19.25;68.07;98862.56;5072051;28;20029;-57
2022/07/25 04:07:20;;;;;;;25.77;12.82;;;;;;;19.83;64.89;98861.66;5072340;28;20051;-57
2022/07/25 04:09:45;;;;;;;20.42;12.73;;;;;;;20.37;63.74;98865.06;5072208;28;20028;-57
2022/07/25 04:12:11;;;;;;;30.70;13.32;;;;;;;21.05;60.68;98867.44;5072574;28;20494;-57
2022/07/25 04:14:37;;;;;;;22.08;12.63;;;;;;;21.33;59.66;98862.47;5079617;28;20025;-57
2022/07/25 04:17:02;;;;;;;22.77;12.35;;;;;;;21.95;57.86;98866.69;5072349;28;20038;-56
2022/07/25 04:19:27;;;;;;;21.35;12.32;;;;;;;22.47;56.28;98866.47;5073365;28;20032;-57
2022/07/25 04:21:53;;;;;;;27.92;12.85;;;;;;;22.13;57.26;98857.28;5072561;28;20024;-57
2022/07/25 04:24:18;;;;;;;20.15;11.82;;;;;;;22.44;55.87;98860.84;5072210;28;20500;-57
2022/07/25 04:26:44;;;;;;;22.90;12.88;;;;;;;22.51;55.41;98856.47;5072450;28;20024;-57
2022/07/25 04:29:09;;;;;;;21.42;11.60;;;;;;;22.84;54.39;98853.06;5072266;28;20032;-57
2022/07/25 04:31:34;;;;;;;23.65;12.15;;;;;;;23.23;53.60;98854.50;5071933;28;20021;-56
2022/07/25 04:34:00;;;;;;;21.23;11.77;;;;;;;23.81;51.30;98862.84;5071923;28;20451;-56
2022/07/25 04:36:25;;;;;;;22.55;11.25;;;;;;;24.20;50.33;98857.84;5071985;28;20025;-57
2022/07/25 04:38:52;;;;;;;16.10;10.57;;;;;;;24.85;48.44;98854.38;5072101;28;20016;-57
2022/07/25 04:41:17;;;;;;;20.40;11.02;;;;;;;24.87;49.34;98847.41;5081303;28;20032;-56
2022/07/25 04:43:43;;;;;;;47.55;12.00;;;;;;;25.08;48.17;98840.94;5077735;28;20090;-57
2022/07/25 04:46:08;;;;;;;30.90;12.02;;;;;;;25.13;48.25;98846.16;5071733;28;20036;-55
2022/07/25 04:48:34;;;;;;;38.58;12.10;;;;;;;25.13;47.84;98844.22;5071641;28;20101;-56
2022/07/25 04:50:59;;;;;;;78.20;13.00;;;;;;;25.27;47.03;98848.56;5072088;28;20520;-56
2022/07/25 04:53:25;;;;;;;20.35;11.73;;;;;;;26.84;43.95;98835.97;5072006;28;20446;-56
2022/07/25 04:55:50;;;;;;;18.67;11.55;;;;;;;27.09;43.10;98830.97;5071770;28;20044;-56
2022/07/25 04:58:16;;;;;;;21.38;11.68;;;;;;;26.80;43.22;98835.09;5071472;28;20028;-56
2022/07/25 05:00:41;;;;;;;19.48;11.73;;;;;;;26.70;43.74;98830.16;5076883;28;20051;-56
2022/07/25 05:03:07;;;;;;;18.95;11.90;;;;;;;26.88;43.67;98834.09;5070982;28;20086;-56
2022/07/25 05:05:32;;;;;;;20.38;10.93;;;;;;;27.56;42.25;98831.91;5071773;28;20028;-55
2022/07/25 05:07:58;;;;;;;21.65;11.50;;;;;;;27.98;41.44;98828.31;5073240;28;20036;-56
2022/07/25 05:10:24;;;;;;;20.85;12.02;;;;;;;27.63;41.87;98832.03;5071556;28;20028;-57
2022/07/25 05:12:49;;;;;;;21.80;12.15;;;;;;;27.36;42.84;98835.81;5071696;28;20032;-57
2022/07/25 05:15:15;;;;;;;17.45;11.77;;;;;;;27.98;41.27;98833.81;5071887;28;20029;-55
2022/07/25 05:17:40;;;;;;;20.05;12.50;;;;;;;28.49;40.42;98827.94;5071063;28;20059;-56
2022/07/25 05:20:06;;;;;;;29.40;11.48;;;;;;;28.13;41.00;98838.41;5074027;28;20064;-55
2022/07/25 05:22:32;;;;;;;22.00;11.07;;;;;;;28.80;40.22;98834.25;5075897;28;20038;-55
2022/07/25 05:24:57;;;;;;;20.05;11.82;;;;;;;29.40;39.93;98836.19;5075347;28;20032;-56
2022/07/25 05:27:23;;;;;;;17.88;10.90;;;;;;;28.97;39.65;98839.22;5075663;28;20090;-56
2022/07/25 05:29:48;;;;;;;16.63;11.20;;;;;;;29.68;38.79;98830.22;5075562;28;20024;-56
2022/07/25 05:32:14;;;;;;;21.75;12.00;;;;;;;29.31;39.07;98839.25;5075890;28;20036;-56
2022/07/25 05:34:39;;;;;;;23.73;11.60;;;;;;;29.41;39.15;98833.06;5074836;28;20021;-55
2022/07/25 05:37:04;;;;;;;17.65;11.45;;;;;;;29.38;39.27;98828.31;5075908;28;20478;-57
2022/07/25 05:39:30;;;;;;;16.95;11.07;;;;;;;29.72;39.22;98828.25;5075703;28;20530;-57
2022/07/25 05:41:55;;;;;;;19.02;11.45;;;;;;;29.65;38.82;98823.47;5075573;28;20035;-57
2022/07/25 05:44:21;;;;;;;32.42;12.82;;;;;;;30.24;38.04;98822.75;5074375;28;20059;-58
2022/07/25 05:46:49;;;;;;;26.58;12.38;;;;;;;30.29;37.96;98814.91;5075539;28;20032;-57
2022/07/25 05:49:14;;;;;;;30.45;12.70;;;;;;;30.48;36.96;98815.84;5074909;28;20060;-57
2022/07/25 05:51:40;;;;;;;22.15;12.18;;;;;;;30.74;37.56;98812.03;5078615;28;20028;-58
2022/07/25 05:54:05;;;;;;;17.75;11.93;;;;;;;31.36;36.13;98814.63;5074063;28;20090;-58
2022/07/25 05:56:31;;;;;;;20.65;11.65;;;;;;;30.73;36.78;98810.44;5074919;28;20039;-56
2022/07/25 05:58:56;;;;;;;25.55;11.32;;;;;;;32.11;35.02;98804.84;5077012;28;20127;-56
2022/07/25 06:01:21;;;;;;;21.50;11.43;;;;;;;32.55;35.03;98806.38;5075283;28;20051;-57
2022/07/25 06:03:47;;;;;;;25.17;12.15;;;;;;;32.34;35.12;98798.88;5074439;28;20036;-57
2022/07/25 06:06:12;;;;;;;26.40;11.73;;;;;;;32.37;35.30;98798.84;5075574;28;20387;-57
2022/07/25 06:08:38;;;;;;;29.60;12.65;;;;;;;31.49;35.82;98795.69;5074661;28;20028;-57
2022/07/25 06:11:04;;;;;;;26.42;12.35;;;;;;;32.48;34.73;98792.50;5075010;28;20020;-57
2022/07/25 06:13:30;;;;;;;21.10;10.88;;;;;;;33.06;33.76;98794.69;5075073;28;20067;-57
2022/07/25 06:15:56;;;;;;;49.13;12.35;;;;;;;33.46;33.06;98800.81;5060451;28;20048;-57
2022/07/25 06:18:22;;;;;;;28.92;11.48;;;;;;;33.85;32.36;98799.78;5074645;28;20036;-57
2022/07/25 06:20:47;;;;;;;29.83;11.60;;;;;;;34.02;32.30;98802.78;5073574;28;20097;-57
2022/07/25 06:23:13;;;;;;;29.30;10.82;;;;;;;32.98;34.18;98809.00;5073370;28;20028;-57
2022/07/25 06:25:38;;;;;;;38.97;11.82;;;;;;;33.46;33.81;98800.81;5075036;28;20033;-57
2022/07/25 06:28:04;;;;;;;65.15;13.60;;;;;;;33.51;33.86;98803.16;5079458;28;20035;-57
2022/07/25 06:30:29;;;;;;;70.82;14.02;;;;;;;33.84;32.96;98800.16;5074097;28;20061;-57
2022/07/25 06:32:55;;;;;;;99.90;15.80;;;;;;;34.13;32.07;98800.75;5073637;28;20358;-57
2022/07/25 06:35:20;;;;;;;112.90;16.50;;;;;;;33.27;33.35;98793.81;5074391;28;20017;-56
2022/07/25 06:37:46;;;;;;;111.93;17.70;;;;;;;33.46;33.65;98791.69;5074418;28;20032;-56
2022/07/25 06:40:11;;;;;;;117.38;16.52;;;;;;;33.61;33.23;98795.19;5074592;28;20028;-56
2022/07/25 06:42:40;;;;;;;129.35;16.02;;;;;;;34.06;32.67;98787.66;5079228;28;20025;-56
2022/07/25 06:45:08;;;;;;;108.90;15.02;;;;;;;35.13;31.64;98788.50;5074271;28;20032;-56
2022/07/25 06:47:33;;;;;;;104.50;15.85;;;;;;;33.57;33.28;98789.66;5076811;28;20020;-56
2022/07/25 06:49:59;;;;;;;102.72;15.00;;;;;;;35.13;31.49;98790.50;5058256;28;20077;-56
2022/07/25 06:52:24;;;;;;;149.70;16.13;;;;;;;34.98;31.33;98801.78;5079411;28;20055;-56
2022/07/25 06:54:50;;;;;;;119.13;15.52;;;;;;;35.37;30.37;98799.69;5072907;28;20075;-56
2022/07/25 06:57:15;;;;;;;104.90;16.35;;;;;;;34.87;31.01;98792.00;5074238;28;20043;-56
2022/07/25 06:59:40;;;;;;;119.15;15.05;;;;;;;34.81;31.47;98794.47;5072986;28;20025;-56
2022/07/25 07:02:06;;;;;;;105.60;15.27;;;;;;;35.82;30.33;98791.88;5079853;28;20363;-56
2022/07/25 07:04:31;;;;;;;150.25;17.40;;;;;;;36.61;29.46;98796.03;5073509;28;20028;-56
2022/07/25 07:06:57;;;;;;;112.68;15.50;;;;;;;35.76;29.94;98793.53;5073702;28;20032;-56
2022/07/25 07:09:22;;;;;;;109.18;14.23;;;;;;;35.91;29.86;98788.50;5073806;28;20028;-56
2022/07/25 07:11:47;;;;;;;77.88;11.70;;;;;;;36.13;29.37;98777.03;5073797;28;20165;-57
2022/07/25 07:14:13;;;;;;;71.90;12.07;;;;;;;36.95;28.50;98775.41;5055855;28;20033;-56
2022/07/25 07:16:40;;;;;;;50.13;11.27;;;;;;;36.89;28.44;98768.75;5077511;28;20028;-56
2022/07/25 07:19:05;;;;;;;58.27;11.80;;;;;;;35.76;29.85;98762.88;5072979;28;20491;-56
2022/07/25 07:21:30;;;;;;;42.17;11.82;;;;;;;36.61;28.74;98759.75;5073596;28;20016;-56
2022/07/25 07:23:56;;;;;;;34.75;10.88;;;;;;;36.42;28.47;98754.94;5073380;28;20455;-56
2022/07/25 07:26:22;;;;;;;49.15;10.95;;;;;;;34.75;30.35;98759.97;5073619;28;20050;-57
2022/07/25 07:28:47;;;;;;;35.25;10.50;;;;;;;36.49;29.18;98761.19;5073217;28;20020;-56
2022/07/25 07:31:15;;;;;;;35.97;10.32;;;;;;;37.33;28.21;98749.84;5073469;28;20020;-58
2022/07/25 07:33:41;;;;;;;22.27;9.30;;;;;;;37.50;27.12;98742.25;5073079;28;20059;-57
2022/07/25 07:36:07;;;;;;;17.63;8.60;;;;;;;37.58;26.66;98745.69;5073236;28;20445;-55
2022/07/25 07:38:33;;;;;;;12.35;9.25;;;;;;;34.74;29.91;98747.22;5075328;28;20108;-56
2022/07/25 07:40:58;;;;;;;14.50;9.20;;;;;;;33.54;31.76;98750.78;5073118;28;20060;-58
2022/07/25 07:43:24;;;;;;;12.27;9.13;;;;;;;34.98;30.05;98739.75;5070998;28;20070;-57
2022/07/25 07:45:49;;;;;;;12.95;9.35;;;;;;;37.03;27.48;98736.94;5073201;28;20039;-58
2022/07/25 07:48:15;;;;;;;14.05;9.85;;;;;;;34.86;29.71;98743.09;5071505;28;20027;-55
2022/07/25 07:50:40;;;;;;;17.63;10.30;;;;;;;36.21;28.84;98733.84;5071849;28;20663;-55
2022/07/25 07:53:06;;;;;;;12.85;9.57;;;;;;;36.71;27.95;98736.41;5072889;28;20407;-55
2022/07/25 07:55:54;;;;;;;13.25;9.82;;;;;;;36.78;28.49;98731.91;5073043;28;20024;-56
2022/07/25 07:58:19;;;;;;;16.00;10.27;;;;;;;32.54;33.14;98727.13;5072850;28;20387;-56
2022/07/25 08:00:49;;;;;;;15.65;10.27;;;;;;;34.51;31.01;98729.19;5072854;28;20013;-56
2022/07/25 08:03:18;;;;;;;15.68;11.52;;;;;;;30.41;37.00;98721.81;5071104;28;20055;-56
2022/07/25 08:05:43;;;;;;;14.55;11.10;;;;;;;30.66;36.59;98722.69;5079340;28;20024;-58
2022/07/25 08:08:13;;;;;;;15.02;11.35;;;;;;;30.23;37.83;98722.47;5072890;28;20025;-57
2022/07/25 08:10:44;;;;;;;15.63;12.02;;;;;;;30.31;37.59;98718.59;5073062;28;20058;-56
2022/07/25 08:13:17;;;;;;;17.95;11.57;;;;;;;30.76;37.01;98717.59;5072494;28;20082;-58
2022/07/25 08:15:44;;;;;;;19.52;11.93;;;;;;;33.73;32.76;98708.56;5072787;28;20541;-54
2022/07/25 08:18:09;;;;;;;13.07;10.90;;;;;;;34.39;31.60;98709.50;5071855;28;20029;-56
2022/07/25 08:20:35;;;;;;;15.55;10.88;;;;;;;31.22;35.69;98703.09;5072525;28;20058;-56
2022/07/25 08:23:01;;;;;;;15.05;10.52;;;;;;;32.51;34.12;98708.53;5072606;28;20051;-56
2022/07/25 08:25:26;;;;;;;16.88;10.85;;;;;;;33.25;32.71;98700.97;5072277;28;20471;-55
2022/07/25 08:27:52;;;;;;;16.60;11.20;;;;;;;34.27;31.06;98700.47;5071318;28;20024;-56
2022/07/25 08:30:17;;;;;;;21.75;10.55;;;;;;;33.23;32.94;98687.53;5072308;28;20028;-56
2022/07/25 08:32:50;;;;;;;15.63;10.85;;;;;;;33.61;32.31;98689.63;5072017;28;20031;-56
2022/07/25 08:35:16;;;;;;;15.60;11.38;;;;;;;32.63;32.59;98688.66;5072352;28;20040;-56
2022/07/25 08:37:42;;;;;;;15.45;10.68;;;;;;;31.88;34.74;98681.34;5072434;28;20051;-56
2022/07/25 08:40:08;;;;;;;14.60;10.18;;;;;;;31.75;34.91;98686.50;5072532;28;20379;-57
2022/07/25 08:42:34;;;;;;;20.45;11.23;;;;;;;33.13;33.04;98693.94;5077640;28;20021;-56
2022/07/25 08:45:02;;;;;;;16.63;11.38;;;;;;;33.56;32.06;98688.06;5077320;28;20031;-56
2022/07/25 08:47:28;;;;;;;18.05;10.65;;;;;;;33.54;31.91;98687.66;5076316;28;20026;-56
2022/07/25 08:49:53;;;;;;;16.00;11.13;;;;;;;33.78;31.70;98682.34;5071584;28;20431;-56
2022/07/25 08:52:18;;;;;;;17.85;11.10;;;;;;;33.56;31.57;98685.31;5072329;28;20037;-56
2022/07/25 08:54:45;;;;;;;16.48;10.88;;;;;;;34.93;30.64;98682.56;5054784;28;20070;-56
2022/07/25 08:57:11;;;;;;;16.17;10.50;;;;;;;33.85;32.21;98679.44;5072150;28;20031;-55
2022/07/25 08:59:36;;;;;;;17.02;9.63;;;;;;;33.99;31.09;98687.66;5072294;28;20066;-56
2022/07/25 09:02:05;;;;;;;14.50;10.68;;;;;;;34.31;31.47;98683.75;5071896;28;20371;-56
2022/07/25 09:04:33;;;;;;;16.25;11.15;;;;;;;32.40;33.48;98687.16;5071505;28;20472;-56
2022/07/25 09:07:00;;;;;;;16.05;10.73;;;;;;;33.14;33.03;98689.19;5072346;28;20090;-56
2022/07/25 09:09:29;;;;;;;16.90;10.60;;;;;;;33.53;32.86;98688.88;5071963;28;20029;-56
2022/07/25 09:11:55;;;;;;;18.77;10.77;;;;;;;33.11;33.23;98690.78;5075466;28;20035;-56
2022/07/25 09:14:20;;;;;;;15.15;10.98;;;;;;;32.78;33.65;98687.41;5071884;28;20032;-55
2022/07/25 09:16:46;;;;;;;16.55;10.80;;;;;;;31.63;35.24;98688.88;5074264;28;20367;-55
2022/07/25 09:19:14;;;;;;;17.15;11.20;;;;;;;32.18;34.43;98685.66;5071197;28;20024;-56
2022/07/25 09:21:40;;;;;;;16.23;11.23;;;;;;;32.34;34.41;98693.50;5071576;28;20032;-54
2022/07/25 09:24:14;;;;;;;23.40;10.50;;;;;;;31.75;35.14;98686.50;5071798;28;20119;-55
2022/07/25 09:26:47;;;;;;;17.42;10.93;;;;;;;32.76;34.07;98691.78;5072186;28;20025;-55
2022/07/25 09:29:30;;;;;;;15.88;10.70;;;;;;;33.60;32.40;98683.28;5072239;28;20107;-55
2022/07/25 09:31:57;;;;;;;17.80;10.35;;;;;;;34.43;31.23;98693.56;5076008;28;20063;-56
2022/07/25 09:34:36;;;;;;;16.95;10.40;;;;;;;34.99;30.51;98692.00;5071149;28;20036;-56
2022/07/25 09:37:07;;;;;;;15.00;9.48;;;;;;;34.68;30.07;98688.47;5071608;28;20032;-55
2022/07/25 09:39:33;;;;;;;21.17;10.30;;;;;;;35.15;29.68;98693.41;5071680;28;20025;-55
2022/07/25 09:41:58;;;;;;;20.67;10.30;;;;;;;34.75;29.97;98688.38;5071573;28;20105;-56
2022/07/25 09:44:29;;;;;;;13.60;9.00;;;;;;;33.91;31.05;98695.28;5071680;28;20070;-55
2022/07/25 09:46:55;;;;;;;14.40;10.00;;;;;;;33.74;31.05;98693.47;5071760;28;20032;-56
2022/07/25 09:49:21;;;;;;;14.13;9.75;;;;;;;33.62;32.08;98705.09;5071387;28;20025;-55
2022/07/25 09:51:46;;;;;;;13.50;9.40;;;;;;;33.32;31.72;98700.94;5070287;28;20032;-57
2022/07/25 09:54:12;;;;;;;18.42;9.38;;;;;;;33.12;32.07;98697.13;5071570;28;20028;-57
2022/07/25 09:56:37;;;;;;;21.08;10.40;;;;;;;33.33;31.90;98702.53;5070143;28;20024;-56
2022/07/25 09:59:03;;;;;;;14.52;9.60;;;;;;;32.69;32.81;98692.59;5071265;28;20066;-57
2022/07/25 10:01:34;;;;;;;14.07;9.35;;;;;;;33.21;32.27;98700.22;5071689;28;20111;-57
2022/07/25 10:04:14;;;;;;;14.77;9.80;;;;;;;34.08;31.28;98704.66;5069555;28;20060;-56
2022/07/25 10:07:08;;;;;;;15.98;9.48;;;;;;;33.88;31.19;98704.44;5075877;28;20032;-57
2022/07/25 10:09:40;;;;;;;16.52;9.57;;;;;;;34.73;30.57;98695.56;5069641;28;20074;-56
2022/07/25 10:12:09;;;;;;;17.02;9.50;;;;;;;34.33;30.56;98689.69;5058149;28;20387;-57
2022/07/25 10:14:35;;;;;;;15.60;9.98;;;;;;;33.97;31.29;98690.03;5074981;28;20028;-57
2022/07/25 10:17:01;;;;;;;16.15;9.80;;;;;;;33.32;31.57;98681.50;5073885;28;20425;-57
2022/07/25 10:19:44;;;;;;;17.17;9.80;;;;;;;32.98;32.81;98684.09;5074515;28;20027;-57
2022/07/25 10:22:09;;;;;;;20.67;9.43;;;;;;;33.18;32.40;98701.84;5074934;28;20028;-57
2022/07/25 10:24:37;;;;;;;14.82;9.90;;;;;;;32.40;33.23;98694.66;5075186;28;20021;-57
2022/07/25 10:27:10;;;;;;;14.60;9.63;;;;;;;32.58;33.10;98697.41;5073950;28;20470;-57
2022/07/25 10:29:39;;;;;;;18.48;10.10;;;;;;;32.56;33.19;98695.03;5073809;28;20404;-56
2022/07/25 10:32:05;;;;;;;;;;;;;;;32.72;33.47;98696.53;5075155;28;20032;-57
2022/07/25 10:34:31;;;;;;;16.23;10.05;;;;;;;32.86;33.11;98694.47;5073735;28;20391;-55
2022/07/25 10:36:58;;;;;;;16.27;9.88;;;;;;;33.25;32.36;98701.78;5086296;28;20380;-55
2022/07/25 10:39:23;;;;;;;14.75;9.18;;;;;;;32.90;32.30;98710.31;5056840;28;20063;-57
2022/07/25 10:42:01;;;;;;;14.82;9.20;;;;;;;33.65;31.28;98707.84;5056699;28;20020;-57
2022/07/25 10:44:29;;;;;;;13.50;8.40;;;;;;;32.87;32.48;98715.50;5080750;28;20039;-57
2022/07/25 10:47:10;;;;;;;15.80;8.65;;;;;;;32.64;32.35;98706.88;5074761;28;20386;-56
2022/07/25 10:49:40;;;;;;;14.35;8.77;;;;;;;32.55;32.27;98709.28;5079972;28;20058;-57
2022/07/25 10:52:06;;;;;;;13.85;8.88;;;;;;;32.11;32.77;98707.84;5073019;28;20386;-56
2022/07/25 10:54:34;;;;;;;13.25;8.90;;;;;;;31.67;33.20;98706.28;5074239;28;20032;-56
2022/07/25 10:57:00;;;;;;;32.15;9.93;;;;;;;31.16;41.16;98714.56;5090792;28;20031;-55
2022/07/25 10:59:37;;;;;;;23.30;9.52;;;;;;;30.09;43.96;98714.09;5074225;28;20029;-56
2022/07/25 11:02:05;;;;;;;14.68;9.18;;;;;;;29.26;44.64;98722.91;5073914;28;20023;-56
2022/07/25 11:04:30;;;;;;;19.88;9.80;;;;;;;28.94;44.62;98715.84;5072322;28;20028;-55
2022/07/25 11:06:56;;;;;;;14.90;8.85;;;;;;;28.69;45.65;98714.78;5074583;28;20508;-56
2022/07/25 11:09:26;;;;;;;21.88;9.18;;;;;;;28.56;44.96;98706.75;5073839;28;20024;-57
2022/07/25 11:11:56;;;;;;;18.20;9.27;;;;;;;28.29;45.09;98702.44;5074252;28;20031;-60
2022/07/25 11:14:36;;;;;;;17.58;9.70;;;;;;;28.35;45.05;98711.97;5073892;28;20101;-55
2022/07/25 11:17:10;;;;;;;21.05;10.32;;;;;;;28.36;47.42;98728.13;5073770;28;20035;-56